Time;durP1;ratioP1;P1;durP2;ratioP2;P2;SDS_P1;SDS_P2;PMS_P1;PMS_P2;Temp;Humidity;BMP_temperature;BMP_pressure;BME280_temperature;BME280_humidity;BME280_pressure;Samples;Min_cycle;Max_cycle;Signal;HPM_P1;HPM_P2
2023/08/03 00:01:24;;;;;;;2.80;1.90;;;15.80;99.90;;;;;;5000925;28;20575;-62
2023/08/03 00:03:53;;;;;;;4.33;2.60;;;15.90;99.90;;;;;;5001831;28;20528;-62
2023/08/03 00:06:21;;;;;;;4.40;2.50;;;15.90;99.90;;;;;;4999582;28;20489;-62
2023/08/03 00:08:49;;;;;;;2.43;1.60;;;15.90;99.90;;;;;;4998592;28;20479;-62
2023/08/03 00:11:17;;;;;;;3.93;1.70;;;15.90;99.90;;;;;;4998682;28;20503;-62
2023/08/03 00:13:45;;;;;;;7.17;2.10;;;15.90;99.90;;;;;;4998955;28;20484;-62
2023/08/03 00:16:13;;;;;;;5.33;1.77;;;15.90;99.90;;;;;;5000606;28;20469;-62
2023/08/03 00:18:41;;;;;;;3.17;2.20;;;15.90;99.90;;;;;;5000174;28;20464;-62
2023/08/03 00:21:10;;;;;;;3.70;1.80;;;15.90;99.90;;;;;;4997645;28;20583;-62
2023/08/03 00:23:39;;;;;;;3.93;1.80;;;16.00;99.90;;;;;;4999675;28;20563;-62
2023/08/03 00:26:07;;;;;;;2.07;1.60;;;16.00;99.90;;;;;;5005202;28;20964;-62
2023/08/03 00:28:34;;;;;;;2.47;1.73;;;16.00;99.90;;;;;;5004616;28;20568;-62
2023/08/03 00:31:02;;;;;;;3.57;1.63;;;16.00;99.90;;;;;;5004949;28;20583;-62
2023/08/03 00:33:31;;;;;;;2.30;1.80;;;16.10;99.90;;;;;;5000489;28;21543;-62
2023/08/03 00:35:59;;;;;;;3.30;2.00;;;16.00;99.90;;;;;;5004682;28;20891;-62
2023/08/03 00:38:28;;;;;;;3.63;2.00;;;16.10;99.90;;;;;;5003795;28;20570;-62
2023/08/03 00:40:56;;;;;;;2.90;2.00;;;16.00;99.90;;;;;;5003192;28;20492;-62
2023/08/03 00:43:24;;;;;;;5.43;2.67;;;16.00;99.90;;;;;;5011433;28;21078;-61
2023/08/03 00:45:52;;;;;;;4.10;2.20;;;16.00;99.90;;;;;;5012142;28;20575;-62
2023/08/03 00:48:20;;;;;;;2.90;2.03;;;16.00;99.90;;;;;;5011346;28;20474;-62
2023/08/03 00:50:48;;;;;;;2.40;2.07;;;16.00;99.90;;;;;;5009190;28;20502;-62
2023/08/03 00:53:16;;;;;;;2.30;2.10;;;16.00;99.90;;;;;;5010512;28;20567;-62
2023/08/03 00:55:45;;;;;;;3.43;2.10;;;16.10;99.90;;;;;;5011339;28;20480;-62
2023/08/03 00:58:13;;;;;;;6.20;2.07;;;16.10;99.90;;;;;;5010099;28;20571;-61
2023/08/03 01:00:41;;;;;;;4.87;2.00;;;16.10;99.90;;;;;;5011008;28;20519;-62
2023/08/03 01:03:09;;;;;;;2.17;2.03;;;16.10;99.90;;;;;;5008123;28;20492;-62
2023/08/03 01:05:37;;;;;;;5.07;2.63;;;16.10;99.90;;;;;;5011803;28;20492;-62
2023/08/03 01:08:06;;;;;;;2.43;2.23;;;16.10;99.90;;;;;;5011204;28;21034;-62
2023/08/03 01:10:34;;;;;;;3.23;2.30;;;16.00;99.90;;;;;;5009442;28;20571;-62
2023/08/03 01:13:03;;;;;;;4.47;2.70;;;16.00;99.90;;;;;;5010620;28;20590;-62
2023/08/03 01:15:31;;;;;;;5.20;2.30;;;16.00;99.90;;;;;;5010988;28;20506;-62
2023/08/03 01:17:59;;;;;;;2.93;2.63;;;16.00;99.90;;;;;;5011312;28;20554;-64
2023/08/03 01:20:28;;;;;;;3.60;2.57;;;16.00;99.90;;;;;;5008562;28;20514;-62
2023/08/03 01:22:57;;;;;;;3.00;2.47;;;16.00;99.90;;;;;;5009749;28;20538;-62
2023/08/03 01:25:26;;;;;;;2.80;2.40;;;16.00;99.90;;;;;;5011205;28;20563;-62
2023/08/03 01:27:54;;;;;;;3.33;2.60;;;16.00;99.90;;;;;;5011632;28;20907;-62
2023/08/03 01:30:22;;;;;;;4.40;2.60;;;16.00;99.90;;;;;;5009512;28;20542;-61
2023/08/03 01:32:50;;;;;;;2.80;2.47;;;16.00;99.90;;;;;;5008560;28;20908;-62
2023/08/03 01:35:18;;;;;;;3.60;2.53;;;16.00;99.90;;;;;;5010873;28;20961;-62
2023/08/03 01:37:46;;;;;;;3.00;2.70;;;16.00;99.90;;;;;;5011352;28;20542;-62
2023/08/03 01:40:16;;;;;;;4.63;2.50;;;16.10;99.90;;;;;;5007825;28;20488;-62
2023/08/03 01:42:44;;;;;;;3.57;2.60;;;16.10;99.90;;;;;;5009410;28;20572;-62
2023/08/03 01:45:12;;;;;;;4.27;2.50;;;16.10;99.90;;;;;;5010948;28;20530;-62
2023/08/03 01:47:40;;;;;;;2.57;2.37;;;16.10;99.90;;;;;;5009711;28;20572;-62
2023/08/03 01:50:08;;;;;;;4.73;2.70;;;16.10;99.90;;;;;;5010159;28;20488;-62
2023/08/03 01:52:36;;;;;;;3.50;2.50;;;16.10;99.90;;;;;;5010264;28;20554;-62
2023/08/03 01:55:05;;;;;;;3.17;2.60;;;16.10;99.90;;;;;;5010967;28;20558;-62
2023/08/03 01:57:35;;;;;;;4.87;2.83;;;16.10;99.90;;;;;;5016795;28;20496;-61
2023/08/03 02:00:04;;;;;;;3.03;2.53;;;16.10;99.90;;;;;;5028661;28;20511;-62
2023/08/03 02:02:32;;;;;;;3.87;2.53;;;16.10;99.90;;;;;;5016120;28;21056;-62
2023/08/03 02:05:00;;;;;;;3.07;2.33;;;16.10;99.90;;;;;;5010813;28;20468;-62
2023/08/03 02:07:45;;;;;;;3.40;2.70;;;16.10;99.90;;;;;;5008448;28;20503;-62
2023/08/03 02:10:14;;;;;;;5.10;2.53;;;16.10;99.90;;;;;;5010234;28;20570;-62
2023/08/03 02:12:43;;;;;;;3.87;2.80;;;16.10;99.90;;;;;;5009208;28;20488;-62
2023/08/03 02:15:12;;;;;;;3.43;2.40;;;16.10;99.90;;;;;;5009022;28;20908;-62
2023/08/03 02:17:40;;;;;;;3.30;2.67;;;16.10;99.90;;;;;;5009928;28;20464;-62
2023/08/03 02:20:09;;;;;;;4.10;2.40;;;16.20;99.90;;;;;;5009987;28;20997;-62
2023/08/03 02:22:37;;;;;;;2.67;2.47;;;16.10;99.90;;;;;;5008772;28;20567;-62
2023/08/03 02:25:06;;;;;;;3.30;2.50;;;16.20;99.90;;;;;;5008945;28;20504;-62
2023/08/03 02:27:34;;;;;;;3.20;2.17;;;16.20;99.90;;;;;;5010246;28;20487;-62
2023/08/03 02:30:04;;;;;;;3.00;2.20;;;16.20;99.90;;;;;;5009471;28;20602;-62
2023/08/03 02:32:32;;;;;;;2.50;2.27;;;16.20;99.90;;;;;;5007258;28;20530;-62
2023/08/03 02:35:00;;;;;;;2.70;2.40;;;16.20;99.90;;;;;;5009644;28;20973;-62
2023/08/03 02:37:28;;;;;;;4.07;2.57;;;16.20;99.90;;;;;;5009835;28;20496;-62
2023/08/03 02:39:56;;;;;;;3.60;2.60;;;16.20;99.90;;;;;;5008075;28;21016;-62
2023/08/03 02:42:24;;;;;;;2.63;2.43;;;16.20;99.90;;;;;;5008465;28;20468;-62
2023/08/03 02:44:51;;;;;;;4.43;2.37;;;16.30;99.90;;;;;;5009208;28;20544;-62
2023/08/03 02:47:21;;;;;;;2.60;2.20;;;16.20;99.90;;;;;;5009656;28;20587;-62
2023/08/03 02:49:49;;;;;;;3.40;2.60;;;16.20;99.90;;;;;;5007303;28;20498;-62
2023/08/03 02:52:17;;;;;;;4.50;2.90;;;16.20;99.90;;;;;;5008895;28;20571;-62
2023/08/03 02:54:45;;;;;;;3.07;2.37;;;16.20;99.90;;;;;;5005982;28;20567;-62
2023/08/03 02:57:13;;;;;;;2.13;1.90;;;16.20;99.90;;;;;;5009236;28;20920;-62
2023/08/03 02:59:41;;;;;;;3.53;2.57;;;16.20;99.90;;;;;;5009195;28;20575;-62
2023/08/03 03:02:09;;;;;;;3.10;2.77;;;16.10;99.90;;;;;;5009361;28;20563;-62
2023/08/03 03:04:38;;;;;;;5.90;2.43;;;16.20;99.90;;;;;;5007950;28;20844;-62
2023/08/03 03:07:08;;;;;;;2.47;2.27;;;16.20;99.90;;;;;;5009037;28;20598;-62
2023/08/03 03:09:36;;;;;;;3.20;2.30;;;16.20;99.90;;;;;;5009133;28;20483;-62
2023/08/03 03:12:04;;;;;;;5.13;2.30;;;16.20;99.90;;;;;;5006011;28;21001;-62
2023/08/03 03:14:32;;;;;;;6.70;2.80;;;16.20;99.90;;;;;;5009247;28;20559;-62
2023/08/03 03:17:00;;;;;;;3.40;2.20;;;16.20;99.90;;;;;;5009449;28;20499;-62
2023/08/03 03:19:28;;;;;;;2.53;2.33;;;16.20;99.90;;;;;;5007482;28;20491;-62
2023/08/03 03:21:57;;;;;;;4.93;2.40;;;16.30;99.90;;;;;;5007681;28;20476;-62
2023/08/03 03:24:25;;;;;;;4.00;2.17;;;16.20;99.90;;;;;;5008800;28;20480;-62
2023/08/03 03:26:54;;;;;;;4.57;2.50;;;16.20;99.90;;;;;;5009143;28;20575;-62
2023/08/03 03:29:22;;;;;;;2.30;2.10;;;16.10;99.90;;;;;;5007150;28;20554;-62
2023/08/03 03:31:50;;;;;;;3.10;2.00;;;16.10;99.90;;;;;;5006061;28;21089;-62
2023/08/03 03:34:18;;;;;;;4.83;2.53;;;16.20;99.90;;;;;;5009014;28;20480;-62
2023/08/03 03:36:46;;;;;;;3.10;2.07;;;16.20;99.90;;;;;;5009149;28;20474;-62
2023/08/03 03:39:15;;;;;;;4.03;2.17;;;16.20;99.90;;;;;;5008497;28;20473;-61
2023/08/03 03:41:45;;;;;;;5.47;2.33;;;16.20;99.90;;;;;;5005445;28;20868;-62
2023/08/03 03:44:13;;;;;;;3.33;2.07;;;16.20;99.90;;;;;;5009079;28;20522;-62
2023/08/03 03:46:41;;;;;;;6.23;2.50;;;16.20;99.90;;;;;;5008465;28;20530;-62
2023/08/03 03:49:09;;;;;;;4.20;2.00;;;16.20;99.90;;;;;;5007207;28;20863;-62
2023/08/03 03:51:37;;;;;;;3.20;2.30;;;16.20;99.90;;;;;;5007826;28;20523;-61
2023/08/03 03:54:05;;;;;;;4.17;2.40;;;16.10;99.90;;;;;;5008675;28;20500;-61
2023/08/03 03:56:34;;;;;;;2.80;2.00;;;16.10;99.90;;;;;;5009665;28;20551;-62
2023/08/03 03:59:02;;;;;;;3.73;2.20;;;16.20;99.90;;;;;;5011539;28;20865;-62
2023/08/03 04:01:30;;;;;;;4.23;2.60;;;16.20;99.90;;;;;;5012617;28;20512;-62
2023/08/03 04:03:58;;;;;;;4.70;2.40;;;16.20;99.90;;;;;;5008354;28;20586;-62
2023/08/03 04:06:26;;;;;;;2.83;2.47;;;16.20;99.90;;;;;;5012562;28;20464;-62
2023/08/03 04:08:54;;;;;;;3.77;2.53;;;16.20;99.90;;;;;;5010770;28;20488;-62
2023/08/03 04:11:22;;;;;;;4.63;2.27;;;16.20;99.90;;;;;;5012886;28;20488;-62
2023/08/03 04:13:51;;;;;;;2.27;1.70;;;16.20;99.90;;;;;;5011489;28;20591;-62
2023/08/03 04:16:23;;;;;;;2.60;2.40;;;16.30;99.90;;;;;;5012696;28;20480;-62
2023/08/03 04:18:51;;;;;;;4.77;2.10;;;16.20;99.90;;;;;;5010775;28;20785;-62
2023/08/03 04:21:19;;;;;;;4.03;2.17;;;16.30;99.90;;;;;;5012276;28;20975;-62
2023/08/03 04:23:47;;;;;;;4.13;2.03;;;16.30;99.90;;;;;;5011310;28;20700;-62
2023/08/03 04:26:15;;;;;;;2.70;2.33;;;16.30;99.90;;;;;;5012061;28;21045;-62
2023/08/03 04:28:43;;;;;;;3.10;2.00;;;16.30;99.90;;;;;;5010597;28;20576;-62
2023/08/03 04:31:12;;;;;;;2.63;2.00;;;16.30;99.90;;;;;;5012486;28;20607;-62
2023/08/03 04:33:40;;;;;;;4.60;2.50;;;16.30;99.90;;;;;;5025080;28;20472;-61
2023/08/03 04:36:08;;;;;;;5.80;2.10;;;16.20;99.90;;;;;;5023084;28;20512;-62
2023/08/03 04:38:36;;;;;;;4.60;2.37;;;16.20;99.90;;;;;;5012700;28;20506;-62
2023/08/03 04:41:04;;;;;;;3.10;2.23;;;16.20;99.90;;;;;;5011235;28;20500;-63
2023/08/03 04:43:32;;;;;;;2.63;2.10;;;16.20;99.90;;;;;;5009766;28;20519;-63
2023/08/03 04:46:00;;;;;;;2.80;1.90;;;16.20;99.90;;;;;;5012306;28;20511;-62
2023/08/03 04:48:30;;;;;;;3.10;2.20;;;16.20;99.90;;;;;;5010841;28;20516;-62
2023/08/03 04:50:58;;;;;;;2.20;1.87;;;16.20;99.90;;;;;;5012365;28;20574;-63
2023/08/03 04:53:26;;;;;;;3.97;2.23;;;16.30;99.90;;;;;;5009217;28;20511;-62
2023/08/03 04:55:54;;;;;;;2.60;1.90;;;16.20;99.90;;;;;;5011527;28;20467;-63
2023/08/03 04:58:22;;;;;;;4.77;3.00;;;16.20;99.90;;;;;;5011291;28;20467;-63
2023/08/03 05:00:50;;;;;;;3.43;2.53;;;16.10;99.90;;;;;;5009503;28;20524;-62
2023/08/03 05:03:18;;;;;;;3.03;2.47;;;16.10;99.90;;;;;;5010633;28;20564;-63
2023/08/03 05:05:48;;;;;;;2.60;2.40;;;16.10;99.90;;;;;;5011515;28;20506;-62
2023/08/03 05:08:16;;;;;;;6.20;2.27;;;16.10;99.90;;;;;;5011209;28;20498;-63
2023/08/03 05:10:44;;;;;;;3.90;2.97;;;16.10;99.90;;;;;;5008911;28;20599;-62
2023/08/03 05:13:12;;;;;;;6.47;2.60;;;16.10;99.90;;;;;;5009585;28;20502;-63
2023/08/03 05:15:41;;;;;;;2.60;2.30;;;16.20;99.90;;;;;;5010421;28;20542;-62
2023/08/03 05:18:09;;;;;;;2.87;2.50;;;16.10;99.90;;;;;;5007872;28;20893;-62
2023/08/03 05:20:37;;;;;;;2.53;2.20;;;16.10;99.90;;;;;;5009777;28;20527;-62
2023/08/03 05:23:08;;;;;;;2.33;2.10;;;16.00;99.90;;;;;;5010907;28;20484;-63
2023/08/03 05:25:36;;;;;;;6.30;2.37;;;16.00;99.90;;;;;;5011211;28;20480;-63
2023/08/03 05:28:05;;;;;;;2.40;1.73;;;16.10;99.90;;;;;;5015221;28;20562;-63
2023/08/03 05:30:33;;;;;;;3.13;2.27;;;16.00;99.90;;;;;;5011235;28;20527;-63
2023/08/03 05:33:02;;;;;;;3.17;2.10;;;16.00;99.90;;;;;;5010195;28;21301;-63
2023/08/03 05:35:30;;;;;;;4.63;2.30;;;16.00;99.90;;;;;;5010729;28;20543;-62
2023/08/03 05:37:58;;;;;;;5.40;2.97;;;16.00;99.90;;;;;;5011509;28;20523;-63
2023/08/03 05:40:28;;;;;;;3.10;2.47;;;16.10;99.90;;;;;;5010523;28;21019;-63
2023/08/03 05:42:56;;;;;;;2.40;2.20;;;16.10;99.90;;;;;;5011357;28;20480;-62
2023/08/03 05:45:38;;;;;;;4.23;2.10;;;16.10;99.90;;;;;;5009828;28;21072;-63
2023/08/03 05:48:14;;;;;;;2.47;1.97;;;16.10;99.90;;;;;;5011417;28;20528;-62
2023/08/03 05:50:43;;;;;;;2.40;1.87;;;16.10;99.90;;;;;;5010551;28;20583;-63
2023/08/03 05:53:12;;;;;;;2.20;1.97;;;16.10;99.90;;;;;;5008337;28;20554;-62
2023/08/03 05:55:41;;;;;;;2.70;2.30;;;16.10;99.90;;;;;;5012275;28;20655;-63
2023/08/03 05:58:12;;;;;;;2.33;2.00;;;16.10;99.90;;;;;;5011195;28;20991;-63
2023/08/03 06:00:41;;;;;;;2.30;2.10;;;16.10;99.90;;;;;;5009693;28;20560;-63
2023/08/03 06:03:13;;;;;;;2.00;1.53;;;16.10;99.90;;;;;;5007352;28;20614;-62
2023/08/03 06:05:44;;;;;;;3.13;2.00;;;16.10;99.90;;;;;;5009642;28;20479;-62
2023/08/03 06:08:16;;;;;;;3.13;1.70;;;16.20;99.90;;;;;;5009561;28;20826;-62
2023/08/03 06:10:47;;;;;;;3.50;2.10;;;16.20;99.90;;;;;;5009201;28;20527;-62
2023/08/03 06:13:17;;;;;;;2.27;2.00;;;16.20;99.90;;;;;;5007384;28;20576;-62
2023/08/03 06:15:46;;;;;;;2.30;1.80;;;16.10;99.90;;;;;;5008967;28;20953;-62
2023/08/03 06:18:16;;;;;;;2.10;2.00;;;16.10;99.90;;;;;;5008791;28;20468;-63
2023/08/03 06:20:46;;;;;;;3.43;2.00;;;16.10;99.90;;;;;;5006991;28;20490;-62
2023/08/03 06:23:17;;;;;;;2.07;1.90;;;16.20;99.90;;;;;;5007989;28;20559;-62
2023/08/03 06:25:47;;;;;;;2.60;1.80;;;16.20;99.90;;;;;;5008848;28;20555;-62
2023/08/03 06:28:17;;;;;;;2.30;2.20;;;16.20;99.90;;;;;;5008814;28;20480;-62
2023/08/03 06:30:45;;;;;;;2.20;2.00;;;16.30;99.90;;;;;;5007021;28;20578;-62
2023/08/03 06:33:15;;;;;;;4.40;2.20;;;16.30;99.90;;;;;;5008385;28;20502;-62
2023/08/03 06:35:45;;;;;;;2.53;2.30;;;16.40;99.90;;;;;;5008768;28;20515;-62
2023/08/03 06:38:15;;;;;;;1.90;1.80;;;16.40;99.90;;;;;;5007611;28;20480;-63
2023/08/03 06:40:44;;;;;;;2.47;2.27;;;16.40;99.90;;;;;;4997936;28;20492;-62
2023/08/03 06:43:14;;;;;;;2.23;2.03;;;16.50;99.90;;;;;;5008376;28;20523;-62
2023/08/03 06:45:43;;;;;;;2.50;2.30;;;16.60;99.90;;;;;;5009183;28;20559;-62
2023/08/03 06:48:12;;;;;;;2.30;2.10;;;16.60;99.90;;;;;;5009201;28;20845;-63
2023/08/03 06:50:40;;;;;;;2.40;2.20;;;16.70;99.90;;;;;;5007425;28;20506;-62
2023/08/03 06:53:08;;;;;;;2.03;1.93;;;16.70;99.90;;;;;;5007887;28;20476;-62
2023/08/03 06:55:36;;;;;;;2.70;2.20;;;16.80;99.90;;;;;;5008499;28;20576;-63
2023/08/03 06:58:04;;;;;;;2.67;2.47;;;16.80;99.90;;;;;;5006948;28;20920;-62
2023/08/03 07:00:33;;;;;;;2.17;1.97;;;16.90;99.90;;;;;;5008411;28;20487;-63
2023/08/03 07:03:01;;;;;;;5.20;2.50;;;16.90;99.90;;;;;;5008198;28;20905;-63
2023/08/03 07:05:30;;;;;;;2.60;2.40;;;17.00;99.90;;;;;;5007686;28;20472;-62
2023/08/03 07:07:58;;;;;;;3.07;2.13;;;17.10;99.90;;;;;;5017058;28;20469;-63
2023/08/03 07:10:26;;;;;;;3.30;2.70;;;17.10;99.90;;;;;;5015765;28;20492;-63
2023/08/03 07:12:56;;;;;;;2.47;2.27;;;17.20;99.90;;;;;;5009364;28;20480;-62
2023/08/03 07:15:24;;;;;;;2.60;2.40;;;17.20;99.90;;;;;;5008700;28;20496;-63
2023/08/03 07:17:54;;;;;;;2.53;2.30;;;17.30;99.90;;;;;;5006723;28;21051;-62
2023/08/03 07:20:22;;;;;;;2.63;2.43;;;17.30;99.90;;;;;;5007777;28;20496;-62
2023/08/03 07:22:50;;;;;;;2.23;2.03;;;17.30;99.90;;;;;;5006924;28;20559;-62
2023/08/03 07:25:18;;;;;;;2.00;1.90;;;17.40;99.90;;;;;;5007683;28;20472;-63
2023/08/03 07:27:46;;;;;;;2.20;2.10;;;17.40;99.90;;;;;;5006864;28;20924;-62
2023/08/03 07:30:14;;;;;;;1.97;1.87;;;17.40;99.90;;;;;;5007365;28;21096;-62
2023/08/03 07:32:42;;;;;;;2.03;1.93;;;17.40;99.90;;;;;;5005370;28;20570;-62
2023/08/03 07:35:12;;;;;;;2.10;2.00;;;17.40;99.90;;;;;;5007451;28;21011;-63
2023/08/03 07:37:40;;;;;;;2.07;1.87;;;17.50;99.90;;;;;;5007380;28;20645;-62
2023/08/03 07:40:09;;;;;;;1.80;1.70;;;17.60;99.90;;;;;;5006126;28;21061;-62
2023/08/03 07:42:37;;;;;;;1.90;1.80;;;17.60;99.90;;;;;;5006780;28;20912;-62
2023/08/03 07:45:06;;;;;;;2.20;2.00;;;17.70;99.90;;;;;;5007371;28;21045;-62
2023/08/03 07:47:34;;;;;;;1.80;1.70;;;17.70;99.90;;;;;;5007811;28;20564;-62
2023/08/03 07:50:03;;;;;;;2.10;2.00;;;17.70;99.90;;;;;;5005861;28;20496;-63
2023/08/03 07:52:33;;;;;;;2.47;1.80;;;17.70;99.90;;;;;;5006700;28;20480;-62
2023/08/03 07:55:02;;;;;;;2.07;1.87;;;17.70;99.90;;;;;;5007491;28;20482;-62
2023/08/03 07:57:30;;;;;;;2.07;1.97;;;17.70;99.90;;;;;;5005163;28;20480;-63
2023/08/03 07:59:58;;;;;;;2.70;2.60;;;17.70;99.90;;;;;;5007691;28;20530;-63
2023/08/03 08:02:26;;;;;;;2.30;2.20;;;17.70;99.90;;;;;;5006843;28;20563;-63
2023/08/03 08:04:54;;;;;;;1.80;1.70;;;17.80;99.90;;;;;;5007374;28;20487;-62
2023/08/03 08:07:22;;;;;;;2.10;2.00;;;17.80;99.90;;;;;;5006478;28;20467;-62
2023/08/03 08:09:53;;;;;;;2.00;1.90;;;17.80;99.90;;;;;;5007092;28;20488;-62
2023/08/03 08:12:21;;;;;;;2.80;1.90;;;17.70;99.90;;;;;;5006600;28;21045;-63
2023/08/03 08:14:49;;;;;;;2.00;1.90;;;17.70;99.90;;;;;;5006282;28;20504;-63
2023/08/03 08:17:17;;;;;;;1.70;1.60;;;17.60;99.90;;;;;;5007084;28;20541;-62
2023/08/03 08:19:45;;;;;;;2.23;1.70;;;17.60;99.90;;;;;;5007254;28;20555;-62
2023/08/03 08:22:14;;;;;;;2.30;2.10;;;17.60;99.90;;;;;;5005304;28;20509;-62
2023/08/03 08:24:44;;;;;;;1.80;1.70;;;17.60;99.90;;;;;;5005959;28;20468;-62
2023/08/03 08:27:16;;;;;;;2.07;1.77;;;17.60;99.90;;;;;;5007462;28;20476;-62
2023/08/03 08:29:46;;;;;;;1.90;1.80;;;17.60;99.90;;;;;;5007084;28;20487;-63
2023/08/03 08:32:14;;;;;;;1.87;1.77;;;17.60;99.90;;;;;;4996474;28;20491;-62
2023/08/03 08:34:42;;;;;;;2.17;1.97;;;17.60;99.90;;;;;;5004844;28;20476;-63
2023/08/03 08:37:10;;;;;;;2.07;1.97;;;17.50;99.90;;;;;;5006244;28;20496;-62
2023/08/03 08:39:38;;;;;;;2.00;1.90;;;17.50;99.90;;;;;;5006964;28;20526;-62
2023/08/03 08:42:15;;;;;;;2.27;2.17;;;17.50;99.90;;;;;;5006038;28;20574;-63
2023/08/03 08:44:43;;;;;;;2.00;1.90;;;17.50;99.90;;;;;;5007947;28;20464;-63
2023/08/03 08:47:11;;;;;;;2.20;2.10;;;17.50;99.90;;;;;;5011465;28;20503;-63
2023/08/03 08:49:39;;;;;;;1.97;1.87;;;17.60;99.90;;;;;;5011218;28;20871;-63
2023/08/03 08:52:11;;;;;;;2.40;2.20;;;17.70;99.90;;;;;;5010034;28;20487;-63
2023/08/03 08:54:39;;;;;;;1.97;1.87;;;17.70;99.90;;;;;;5006330;28;21250;-63
2023/08/03 08:57:10;;;;;;;1.63;1.53;;;17.80;99.90;;;;;;5010818;28;20550;-63
2023/08/03 09:00:05;;;;;;;1.00;1.00;;;17.90;99.90;;;;;;5010246;28;20483;-63
2023/08/03 09:02:33;;;;;;;2.40;1.20;;;18.00;99.90;;;;;;5005158;28;20494;-63
2023/08/03 09:05:09;;;;;;;0.87;0.87;;;18.00;99.90;;;;;;5010515;28;20526;-62
2023/08/03 09:07:38;;;;;;;1.70;1.20;;;17.90;99.90;;;;;;5010721;28;20464;-63
2023/08/03 09:10:06;;;;;;;1.50;1.40;;;17.90;99.90;;;;;;5008574;28;20530;-63
2023/08/03 09:12:35;;;;;;;1.90;1.80;;;17.90;99.90;;;;;;5009916;28;20480;-62
2023/08/03 09:15:05;;;;;;;2.20;1.80;;;18.00;99.90;;;;;;5009647;28;20487;-63
2023/08/03 09:17:33;;;;;;;2.00;1.80;;;18.00;99.90;;;;;;5010125;28;20554;-63
2023/08/03 09:20:01;;;;;;;2.50;1.87;;;18.10;99.90;;;;;;5008022;28;20566;-63
2023/08/03 09:22:42;;;;;;;2.17;2.00;;;18.10;99.90;;;;;;5010587;28;20543;-63
2023/08/03 09:25:13;;;;;;;3.07;2.87;;;18.10;99.90;;;;;;5010379;28;20635;-63
2023/08/03 09:27:54;;;;;;;2.40;2.30;;;18.10;99.90;;;;;;5009325;28;20472;-63
2023/08/03 09:30:26;;;;;;;2.93;2.73;;;18.00;99.90;;;;;;5009860;28;20579;-63
2023/08/03 09:33:14;;;;;;;2.53;2.37;;;18.00;99.90;;;;;;5007614;28;20511;-62
2023/08/03 09:35:46;;;;;;;2.67;2.47;;;18.00;99.90;;;;;;5009982;28;21004;-63
2023/08/03 09:38:24;;;;;;;3.13;2.83;;;18.00;99.90;;;;;;5010322;28;21046;-63
2023/08/03 09:40:52;;;;;;;2.73;2.53;;;18.20;99.90;;;;;;5010596;28;20483;-63
2023/08/03 09:43:23;;;;;;;3.10;2.63;;;18.30;99.90;;;;;;5016446;28;20628;-62
2023/08/03 09:45:57;;;;;;;2.80;2.60;;;18.40;99.90;;;;;;5018255;28;20495;-63
2023/08/03 09:48:26;;;;;;;2.97;2.43;;;18.50;99.90;;;;;;5010090;28;20480;-63
2023/08/03 09:50:55;;;;;;;3.50;2.90;;;18.50;99.90;;;;;;5010382;28;20582;-63
2023/08/03 09:53:26;;;;;;;2.80;2.40;;;18.50;99.90;;;;;;5009245;28;20480;-63
2023/08/03 09:56:00;;;;;;;2.03;1.87;;;18.50;99.90;;;;;;5009289;28;20565;-62
2023/08/03 09:58:32;;;;;;;1.80;1.70;;;18.50;99.90;;;;;;5008128;28;20503;-62
2023/08/03 10:01:04;;;;;;;2.10;2.00;;;18.50;99.90;;;;;;5009543;28;20494;-62
2023/08/03 10:03:33;;;;;;;1.80;1.33;;;18.40;99.90;;;;;;5008973;28;20476;-62
2023/08/03 10:06:08;;;;;;;2.30;2.00;;;18.40;99.90;;;;;;5007498;28;21336;-63
2023/08/03 10:08:41;;;;;;;1.17;1.17;;;18.40;99.90;;;;;;5009141;28;20961;-63
2023/08/03 10:11:12;;;;;;;1.60;1.50;;;18.40;99.90;;;;;;5008884;28;21118;-63
2023/08/03 10:13:46;;;;;;;2.03;1.33;;;18.40;99.90;;;;;;5008535;28;20550;-63
2023/08/03 10:16:16;;;;;;;2.07;1.50;;;18.30;99.90;;;;;;5007541;28;20478;-63
2023/08/03 10:18:46;;;;;;;1.20;1.20;;;18.30;99.90;;;;;;5009107;28;20472;-63
2023/08/03 10:21:17;;;;;;;1.87;1.50;;;18.30;99.90;;;;;;5009648;28;20484;-62
2023/08/03 10:24:13;;;;;;;1.60;1.27;;;18.20;99.90;;;;;;5000658;28;20490;-62
2023/08/03 10:26:42;;;;;;;1.60;1.50;;;18.20;99.90;;;;;;5009198;28;20929;-63
2023/08/03 10:29:10;;;;;;;1.50;1.40;;;18.20;99.90;;;;;;5004875;28;20534;-63
2023/08/03 10:31:55;;;;;;;2.10;1.47;;;18.10;99.90;;;;;;4999921;28;20523;-63
2023/08/03 10:34:27;;;;;;;1.90;1.70;;;18.10;99.90;;;;;;5000312;28;22044;-63
2023/08/03 10:36:57;;;;;;;1.60;1.50;;;18.10;99.90;;;;;;5000628;28;20478;-63
2023/08/03 10:39:51;;;;;;;1.60;1.50;;;18.10;99.90;;;;;;4999617;28;20480;-63
2023/08/03 10:42:30;;;;;;;2.33;2.07;;;18.10;99.90;;;;;;4999004;28;20560;-63
2023/08/03 10:45:26;;;;;;;1.80;1.70;;;18.10;99.90;;;;;;5001317;28;20469;-63
2023/08/03 10:48:22;;;;;;;1.93;1.83;;;18.10;99.90;;;;;;5002739;28;20473;-63
2023/08/03 10:51:01;;;;;;;1.93;1.83;;;18.10;99.90;;;;;;4998483;28;20531;-62
2023/08/03 10:53:29;;;;;;;2.53;1.93;;;18.10;99.90;;;;;;5001404;28;20502;-63
2023/08/03 10:56:06;;;;;;;2.23;1.97;;;18.20;99.90;;;;;;4999748;28;20910;-63
2023/08/03 10:58:48;;;;;;;2.20;2.10;;;18.30;99.90;;;;;;5000440;28;20483;-62
2023/08/03 11:01:22;;;;;;;3.20;2.40;;;18.40;99.90;;;;;;4997998;28;20484;-62
2023/08/03 11:03:53;;;;;;;3.50;2.47;;;18.50;99.90;;;;;;4998082;28;20491;-63
2023/08/03 11:06:22;;;;;;;2.90;2.70;;;18.70;99.90;;;;;;5000885;28;20582;-63
2023/08/03 11:08:51;;;;;;;3.00;2.80;;;18.90;99.90;;;;;;5002810;28;20560;-63
2023/08/03 11:11:23;;;;;;;5.80;3.20;;;19.10;99.90;;;;;;5000460;28;20554;-63
2023/08/03 11:13:52;;;;;;;3.50;3.20;;;19.20;99.90;;;;;;4999310;28;21144;-63
2023/08/03 11:16:23;;;;;;;3.13;2.83;;;19.30;99.90;;;;;;4999400;28;20827;-63
2023/08/03 11:18:53;;;;;;;3.20;3.00;;;19.40;99.90;;;;;;5002578;28;20507;-63
2023/08/03 11:21:20;;;;;;;2.97;2.70;;;19.40;99.90;;;;;;5002161;28;20524;-63
2023/08/03 11:23:48;;;;;;;2.93;2.63;;;19.50;99.90;;;;;;5001546;28;20488;-63
2023/08/03 11:26:17;;;;;;;2.73;2.53;;;19.50;99.90;;;;;;4999641;28;20908;-62
2023/08/03 11:28:46;;;;;;;2.80;2.60;;;19.60;99.90;;;;;;5001446;28;20500;-63
2023/08/03 11:31:17;;;;;;;3.13;2.93;;;19.60;99.90;;;;;;4997890;28;21042;-63
2023/08/03 11:33:49;;;;;;;2.93;2.73;;;19.50;99.90;;;;;;4999107;28;20510;-62
2023/08/03 11:36:19;;;;;;;3.13;2.93;;;19.50;99.90;;;;;;5000400;28;20504;-63
2023/08/03 11:38:47;;;;;;;3.60;3.30;;;19.40;99.90;;;;;;4998673;28;21011;-63
2023/08/03 11:41:18;;;;;;;3.00;2.80;;;19.30;99.90;;;;;;5000788;28;20847;-63
2023/08/03 11:43:59;;;;;;;3.47;3.17;;;19.30;99.90;;;;;;4999513;28;20905;-63
2023/08/03 11:46:28;;;;;;;3.50;3.20;;;19.20;99.90;;;;;;4999958;28;20492;-63
2023/08/03 11:48:57;;;;;;;5.30;3.20;;;19.00;99.90;;;;;;4996625;28;20567;-63
2023/08/03 11:51:33;;;;;;;2.17;2.00;;;18.80;99.90;;;;;;4997803;28;21004;-63
2023/08/03 11:54:04;;;;;;;1.60;1.50;;;18.70;99.90;;;;;;4999489;28;20499;-63
2023/08/03 11:56:33;;;;;;;1.43;1.37;;;18.60;99.90;;;;;;5002713;28;20957;-65
2023/08/03 11:59:10;;;;;;;1.47;1.40;;;18.50;99.90;;;;;;5000613;28;20474;-63
2023/08/03 12:01:45;;;;;;;1.50;1.40;;;18.30;99.90;;;;;;5000111;28;20913;-62
2023/08/03 12:04:15;;;;;;;1.80;1.70;;;18.30;99.90;;;;;;4998879;28;20916;-63
2023/08/03 12:06:49;;;;;;;1.60;1.50;;;18.20;99.90;;;;;;5000206;28;20468;-63
2023/08/03 12:09:19;;;;;;;2.07;1.90;;;18.20;99.90;;;;;;4999870;28;21064;-63
2023/08/03 12:11:48;;;;;;;1.67;1.57;;;18.20;99.90;;;;;;5000892;28;20848;-63
2023/08/03 12:14:17;;;;;;;1.70;1.60;;;18.20;99.90;;;;;;4996973;28;20478;-63
2023/08/03 12:16:46;;;;;;;1.50;1.40;;;18.30;99.90;;;;;;4997973;28;20468;-63
2023/08/03 12:19:15;;;;;;;1.83;1.47;;;18.30;99.90;;;;;;5011064;28;20530;-63
2023/08/03 12:21:43;;;;;;;1.67;1.57;;;18.40;99.90;;;;;;5008711;28;20527;-62
2023/08/03 12:24:13;;;;;;;1.60;1.50;;;18.50;99.90;;;;;;5001021;28;20481;-63
2023/08/03 12:26:41;;;;;;;2.90;1.47;;;18.70;99.90;;;;;;5006128;28;20562;-63
2023/08/03 12:29:09;;;;;;;1.70;1.50;;;19.00;99.90;;;;;;5005453;28;20558;-63
2023/08/03 12:31:38;;;;;;;1.43;1.33;;;19.10;99.90;;;;;;5002535;28;20535;-63
2023/08/03 12:34:06;;;;;;;2.00;1.80;;;19.20;99.90;;;;;;5004638;28;20484;-63
2023/08/03 12:36:35;;;;;;;1.60;1.50;;;19.20;99.90;;;;;;5004549;28;20519;-63
2023/08/03 12:39:05;;;;;;;1.60;1.50;;;19.30;99.90;;;;;;5000974;28;20484;-63
2023/08/03 12:41:37;;;;;;;1.70;1.60;;;19.40;99.90;;;;;;5000023;28;20507;-63
2023/08/03 12:44:05;;;;;;;2.40;1.80;;;19.50;99.90;;;;;;5005252;28;20575;-63
2023/08/03 12:46:33;;;;;;;2.20;1.80;;;19.50;99.90;;;;;;5006373;28;20472;-63
2023/08/03 12:49:01;;;;;;;2.13;1.90;;;19.70;99.90;;;;;;5001436;28;20603;-63
2023/08/03 12:51:30;;;;;;;1.90;1.80;;;19.70;99.90;;;;;;4999966;28;20507;-63
2023/08/03 12:53:58;;;;;;;2.50;1.80;;;19.80;99.90;;;;;;5002141;28;20512;-63
2023/08/03 12:56:26;;;;;;;2.70;1.80;;;20.00;99.90;;;;;;5002932;28;20478;-63
2023/08/03 12:58:55;;;;;;;1.50;1.40;;;20.30;99.90;;;;;;5003225;28;20476;-63
2023/08/03 13:01:23;;;;;;;2.10;2.00;;;20.50;99.90;;;;;;5004006;28;21086;-63